sensor_id;sensor_type;location;lat;lon;timestamp;P1;durP1;ratioP1;P2;durP2;ratioP2
30307;SDS011;17114;52.314;8.910;2024-02-26T00:01:58;8.00;;;4.75;;
30307;SDS011;17114;52.314;8.910;2024-02-26T00:04:25;7.18;;;4.70;;
30307;SDS011;17114;52.314;8.910;2024-02-26T00:06:52;7.65;;;4.43;;
30307;SDS011;17114;52.314;8.910;2024-02-26T00:09:21;7.63;;;3.90;;
30307;SDS011;17114;52.314;8.910;2024-02-26T00:11:48;6.55;;;4.40;;
30307;SDS011;17114;52.314;8.910;2024-02-26T00:14:15;7.38;;;3.67;;
30307;SDS011;17114;52.314;8.910;2024-02-26T00:16:42;7.57;;;4.53;;
30307;SDS011;17114;52.314;8.910;2024-02-26T00:19:09;6.40;;;4.50;;
30307;SDS011;17114;52.314;8.910;2024-02-26T00:21:39;6.78;;;4.78;;
30307;SDS011;17114;52.314;8.910;2024-02-26T00:24:09;6.40;;;4.30;;
30307;SDS011;17114;52.314;8.910;2024-02-26T00:26:36;8.40;;;4.65;;
30307;SDS011;17114;52.314;8.910;2024-02-26T00:29:03;7.22;;;4.80;;
30307;SDS011;17114;52.314;8.910;2024-02-26T00:31:30;12.73;;;4.78;;
30307;SDS011;17114;52.314;8.910;2024-02-26T00:33:57;8.07;;;4.95;;
30307;SDS011;17114;52.314;8.910;2024-02-26T00:36:24;8.02;;;5.07;;
30307;SDS011;17114;52.314;8.910;2024-02-26T00:38:51;8.20;;;4.97;;
30307;SDS011;17114;52.314;8.910;2024-02-26T00:41:18;8.45;;;5.28;;
30307;SDS011;17114;52.314;8.910;2024-02-26T00:43:46;8.20;;;5.40;;
30307;SDS011;17114;52.314;8.910;2024-02-26T00:46:13;7.82;;;5.15;;
30307;SDS011;17114;52.314;8.910;2024-02-26T00:48:40;9.48;;;4.90;;
30307;SDS011;17114;52.314;8.910;2024-02-26T00:51:07;8.57;;;5.10;;
30307;SDS011;17114;52.314;8.910;2024-02-26T00:53:35;6.60;;;4.20;;
30307;SDS011;17114;52.314;8.910;2024-02-26T00:56:02;8.20;;;5.20;;
30307;SDS011;17114;52.314;8.910;2024-02-26T00:58:29;6.68;;;4.60;;
30307;SDS011;17114;52.314;8.910;2024-02-26T01:00:56;9.32;;;4.80;;
30307;SDS011;17114;52.314;8.910;2024-02-26T01:03:23;7.85;;;4.10;;
30307;SDS011;17114;52.314;8.910;2024-02-26T01:05:50;9.07;;;3.95;;
30307;SDS011;17114;52.314;8.910;2024-02-26T01:08:20;8.48;;;4.22;;
30307;SDS011;17114;52.314;8.910;2024-02-26T01:10:46;5.53;;;3.47;;
30307;SDS011;17114;52.314;8.910;2024-02-26T01:13:14;6.05;;;4.00;;
30307;SDS011;17114;52.314;8.910;2024-02-26T01:15:40;5.70;;;4.00;;
30307;SDS011;17114;52.314;8.910;2024-02-26T01:18:07;7.00;;;4.10;;
30307;SDS011;17114;52.314;8.910;2024-02-26T01:20:35;8.13;;;3.95;;
30307;SDS011;17114;52.314;8.910;2024-02-26T01:23:03;6.20;;;3.97;;
30307;SDS011;17114;52.314;8.910;2024-02-26T01:25:30;5.35;;;3.90;;
30307;SDS011;17114;52.314;8.910;2024-02-26T01:27:57;5.15;;;3.70;;
30307;SDS011;17114;52.314;8.910;2024-02-26T01:30:24;7.40;;;3.60;;
30307;SDS011;17114;52.314;8.910;2024-02-26T01:32:51;5.07;;;3.78;;
30307;SDS011;17114;52.314;8.910;2024-02-26T01:35:20;4.10;;;3.33;;
30307;SDS011;17114;52.314;8.910;2024-02-26T01:37:47;6.10;;;3.33;;
30307;SDS011;17114;52.314;8.910;2024-02-26T01:40:15;5.00;;;3.25;;
30307;SDS011;17114;52.314;8.910;2024-02-26T01:42:46;6.18;;;3.35;;
30307;SDS011;17114;52.314;8.910;2024-02-26T01:45:14;5.78;;;3.53;;
30307;SDS011;17114;52.314;8.910;2024-02-26T01:47:48;4.28;;;3.25;;
30307;SDS011;17114;52.314;8.910;2024-02-26T01:50:17;7.07;;;3.63;;
30307;SDS011;17114;52.314;8.910;2024-02-26T01:52:45;4.53;;;3.55;;
30307;SDS011;17114;52.314;8.910;2024-02-26T01:55:13;5.35;;;4.10;;
30307;SDS011;17114;52.314;8.910;2024-02-26T01:57:45;5.90;;;3.53;;
30307;SDS011;17114;52.314;8.910;2024-02-26T02:00:14;5.75;;;3.75;;
30307;SDS011;17114;52.314;8.910;2024-02-26T02:02:42;4.35;;;3.20;;
30307;SDS011;17114;52.314;8.910;2024-02-26T02:05:13;6.50;;;3.95;;
30307;SDS011;17114;52.314;8.910;2024-02-26T02:07:43;10.75;;;3.75;;
30307;SDS011;17114;52.314;8.910;2024-02-26T02:10:11;6.88;;;3.70;;
30307;SDS011;17114;52.314;8.910;2024-02-26T02:12:38;5.55;;;3.72;;
30307;SDS011;17114;52.314;8.910;2024-02-26T02:15:06;5.78;;;3.85;;
30307;SDS011;17114;52.314;8.910;2024-02-26T02:17:34;6.50;;;3.80;;
30307;SDS011;17114;52.314;8.910;2024-02-26T02:20:02;5.57;;;3.90;;
30307;SDS011;17114;52.314;8.910;2024-02-26T02:22:29;5.32;;;3.72;;
30307;SDS011;17114;52.314;8.910;2024-02-26T02:24:58;5.53;;;3.88;;
30307;SDS011;17114;52.314;8.910;2024-02-26T02:27:25;5.65;;;3.90;;
30307;SDS011;17114;52.314;8.910;2024-02-26T02:29:54;6.82;;;4.03;;
30307;SDS011;17114;52.314;8.910;2024-02-26T02:32:21;5.82;;;4.25;;
30307;SDS011;17114;52.314;8.910;2024-02-26T02:34:48;6.80;;;4.28;;
30307;SDS011;17114;52.314;8.910;2024-02-26T02:37:16;5.65;;;4.22;;
30307;SDS011;17114;52.314;8.910;2024-02-26T02:39:43;5.78;;;4.25;;
30307;SDS011;17114;52.314;8.910;2024-02-26T02:42:12;8.82;;;4.07;;
30307;SDS011;17114;52.314;8.910;2024-02-26T02:44:39;6.03;;;4.00;;
30307;SDS011;17114;52.314;8.910;2024-02-26T02:47:06;6.55;;;4.43;;
30307;SDS011;17114;52.314;8.910;2024-02-26T02:49:32;7.68;;;4.13;;
30307;SDS011;17114;52.314;8.910;2024-02-26T02:52:00;6.05;;;4.28;;
30307;SDS011;17114;52.314;8.910;2024-02-26T02:54:27;8.90;;;4.72;;
30307;SDS011;17114;52.314;8.910;2024-02-26T02:56:54;5.25;;;4.15;;
30307;SDS011;17114;52.314;8.910;2024-02-26T02:59:21;8.13;;;4.50;;
30307;SDS011;17114;52.314;8.910;2024-02-26T03:01:48;6.65;;;3.92;;
30307;SDS011;17114;52.314;8.910;2024-02-26T03:04:15;6.95;;;4.53;;
30307;SDS011;17114;52.314;8.910;2024-02-26T03:06:42;7.82;;;4.50;;
30307;SDS011;17114;52.314;8.910;2024-02-26T03:09:09;5.65;;;4.38;;
30307;SDS011;17114;52.314;8.910;2024-02-26T03:11:36;6.72;;;4.32;;
30307;SDS011;17114;52.314;8.910;2024-02-26T03:14:03;6.47;;;4.55;;
30307;SDS011;17114;52.314;8.910;2024-02-26T03:16:31;6.65;;;4.18;;
30307;SDS011;17114;52.314;8.910;2024-02-26T03:19:00;6.38;;;4.18;;
30307;SDS011;17114;52.314;8.910;2024-02-26T03:21:27;7.03;;;4.47;;
30307;SDS011;17114;52.314;8.910;2024-02-26T03:23:54;8.10;;;4.63;;
30307;SDS011;17114;52.314;8.910;2024-02-26T03:26:21;7.05;;;4.50;;
30307;SDS011;17114;52.314;8.910;2024-02-26T03:28:48;6.82;;;4.75;;
30307;SDS011;17114;52.314;8.910;2024-02-26T03:31:15;6.93;;;4.80;;
30307;SDS011;17114;52.314;8.910;2024-02-26T03:33:42;6.80;;;4.28;;
30307;SDS011;17114;52.314;8.910;2024-02-26T03:36:09;6.03;;;4.65;;
30307;SDS011;17114;52.314;8.910;2024-02-26T03:38:36;5.95;;;4.50;;
30307;SDS011;17114;52.314;8.910;2024-02-26T03:41:04;7.30;;;4.40;;
30307;SDS011;17114;52.314;8.910;2024-02-26T03:43:30;5.93;;;4.40;;
30307;SDS011;17114;52.314;8.910;2024-02-26T03:45:58;6.78;;;4.68;;
30307;SDS011;17114;52.314;8.910;2024-02-26T03:48:25;7.88;;;4.82;;
30307;SDS011;17114;52.314;8.910;2024-02-26T03:50:52;8.23;;;4.63;;
30307;SDS011;17114;52.314;8.910;2024-02-26T03:53:19;7.25;;;4.88;;
30307;SDS011;17114;52.314;8.910;2024-02-26T03:55:46;7.50;;;5.20;;
30307;SDS011;17114;52.314;8.910;2024-02-26T03:58:13;9.20;;;4.97;;
30307;SDS011;17114;52.314;8.910;2024-02-26T04:00:40;6.32;;;4.38;;
30307;SDS011;17114;52.314;8.910;2024-02-26T04:03:09;7.40;;;4.95;;
30307;SDS011;17114;52.314;8.910;2024-02-26T04:05:36;7.40;;;5.38;;
30307;SDS011;17114;52.314;8.910;2024-02-26T04:08:04;6.97;;;4.70;;
30307;SDS011;17114;52.314;8.910;2024-02-26T04:10:33;6.60;;;5.13;;
30307;SDS011;17114;52.314;8.910;2024-02-26T04:13:07;7.68;;;5.07;;
30307;SDS011;17114;52.314;8.910;2024-02-26T04:15:34;12.73;;;5.15;;
30307;SDS011;17114;52.314;8.910;2024-02-26T04:18:01;7.07;;;4.95;;
30307;SDS011;17114;52.314;8.910;2024-02-26T04:20:29;8.13;;;5.20;;
30307;SDS011;17114;52.314;8.910;2024-02-26T04:22:56;9.57;;;5.45;;
30307;SDS011;17114;52.314;8.910;2024-02-26T04:25:23;9.50;;;5.55;;
30307;SDS011;17114;52.314;8.910;2024-02-26T04:27:50;10.52;;;6.03;;
30307;SDS011;17114;52.314;8.910;2024-02-26T04:30:17;8.88;;;5.97;;
30307;SDS011;17114;52.314;8.910;2024-02-26T04:32:46;11.68;;;6.75;;
30307;SDS011;17114;52.314;8.910;2024-02-26T04:35:13;9.27;;;6.57;;
30307;SDS011;17114;52.314;8.910;2024-02-26T04:37:40;7.93;;;5.82;;
30307;SDS011;17114;52.314;8.910;2024-02-26T04:40:07;10.20;;;6.70;;
30307;SDS011;17114;52.314;8.910;2024-02-26T04:42:34;10.40;;;7.13;;
30307;SDS011;17114;52.314;8.910;2024-02-26T04:45:01;10.15;;;6.60;;
30307;SDS011;17114;52.314;8.910;2024-02-26T04:47:28;9.10;;;6.68;;
30307;SDS011;17114;52.314;8.910;2024-02-26T04:49:56;11.15;;;7.40;;
30307;SDS011;17114;52.314;8.910;2024-02-26T04:52:23;13.55;;;7.32;;
30307;SDS011;17114;52.314;8.910;2024-02-26T04:54:50;16.10;;;7.43;;
30307;SDS011;17114;52.314;8.910;2024-02-26T04:57:17;15.70;;;7.93;;
30307;SDS011;17114;52.314;8.910;2024-02-26T04:59:45;14.15;;;7.93;;
30307;SDS011;17114;52.314;8.910;2024-02-26T05:02:12;12.18;;;8.07;;
30307;SDS011;17114;52.314;8.910;2024-02-26T05:04:40;14.75;;;8.38;;
30307;SDS011;17114;52.314;8.910;2024-02-26T05:07:07;14.00;;;8.35;;
30307;SDS011;17114;52.314;8.910;2024-02-26T05:09:34;15.25;;;8.65;;
30307;SDS011;17114;52.314;8.910;2024-02-26T05:12:01;14.57;;;8.07;;
30307;SDS011;17114;52.314;8.910;2024-02-26T05:14:28;16.80;;;8.77;;
30307;SDS011;17114;52.314;8.910;2024-02-26T05:16:55;14.48;;;9.07;;
30307;SDS011;17114;52.314;8.910;2024-02-26T05:19:22;16.23;;;9.35;;
30307;SDS011;17114;52.314;8.910;2024-02-26T05:21:49;15.18;;;8.77;;
30307;SDS011;17114;52.314;8.910;2024-02-26T05:24:17;14.70;;;8.52;;
30307;SDS011;17114;52.314;8.910;2024-02-26T05:26:45;14.73;;;8.07;;
30307;SDS011;17114;52.314;8.910;2024-02-26T05:29:12;13.52;;;8.15;;
30307;SDS011;17114;52.314;8.910;2024-02-26T05:31:39;15.73;;;7.85;;
30307;SDS011;17114;52.314;8.910;2024-02-26T05:34:08;15.25;;;8.38;;
30307;SDS011;17114;52.314;8.910;2024-02-26T05:36:36;13.20;;;7.07;;
30307;SDS011;17114;52.314;8.910;2024-02-26T05:39:02;13.07;;;7.70;;
30307;SDS011;17114;52.314;8.910;2024-02-26T05:41:30;12.40;;;6.68;;
30307;SDS011;17114;52.314;8.910;2024-02-26T05:43:57;10.50;;;6.97;;
30307;SDS011;17114;52.314;8.910;2024-02-26T05:46:25;11.32;;;6.88;;
30307;SDS011;17114;52.314;8.910;2024-02-26T05:48:53;11.80;;;6.80;;
30307;SDS011;17114;52.314;8.910;2024-02-26T05:51:21;11.23;;;6.20;;
30307;SDS011;17114;52.314;8.910;2024-02-26T05:53:48;9.50;;;5.80;;
30307;SDS011;17114;52.314;8.910;2024-02-26T05:56:21;12.43;;;6.05;;
30307;SDS011;17114;52.314;8.910;2024-02-26T05:58:49;10.98;;;5.55;;
30307;SDS011;17114;52.314;8.910;2024-02-26T06:01:16;9.70;;;5.70;;
30307;SDS011;17114;52.314;8.910;2024-02-26T06:03:44;13.38;;;5.78;;
30307;SDS011;17114;52.314;8.910;2024-02-26T06:06:11;11.50;;;5.93;;
30307;SDS011;17114;52.314;8.910;2024-02-26T06:08:39;9.98;;;5.68;;
30307;SDS011;17114;52.314;8.910;2024-02-26T06:11:06;11.88;;;5.32;;
30307;SDS011;17114;52.314;8.910;2024-02-26T06:13:34;8.85;;;5.32;;
30307;SDS011;17114;52.314;8.910;2024-02-26T06:16:01;10.48;;;5.75;;
30307;SDS011;17114;52.314;8.910;2024-02-26T06:18:28;7.85;;;4.85;;
30307;SDS011;17114;52.314;8.910;2024-02-26T06:20:56;8.35;;;4.80;;
30307;SDS011;17114;52.314;8.910;2024-02-26T06:23:23;10.10;;;5.15;;
30307;SDS011;17114;52.314;8.910;2024-02-26T06:25:50;10.02;;;5.07;;
30307;SDS011;17114;52.314;8.910;2024-02-26T06:28:17;9.20;;;5.18;;
30307;SDS011;17114;52.314;8.910;2024-02-26T06:30:44;7.97;;;5.07;;
30307;SDS011;17114;52.314;8.910;2024-02-26T06:33:12;8.75;;;4.88;;
30307;SDS011;17114;52.314;8.910;2024-02-26T06:35:40;11.70;;;5.53;;
30307;SDS011;17114;52.314;8.910;2024-02-26T06:38:08;8.55;;;4.60;;
30307;SDS011;17114;52.314;8.910;2024-02-26T06:40:36;10.82;;;5.35;;
30307;SDS011;17114;52.314;8.910;2024-02-26T06:43:03;7.93;;;4.20;;
30307;SDS011;17114;52.314;8.910;2024-02-26T06:45:30;7.63;;;4.60;;
30307;SDS011;17114;52.314;8.910;2024-02-26T06:47:57;8.10;;;4.53;;
30307;SDS011;17114;52.314;8.910;2024-02-26T06:50:28;6.50;;;4.53;;
30307;SDS011;17114;52.314;8.910;2024-02-26T06:52:55;7.95;;;4.50;;
30307;SDS011;17114;52.314;8.910;2024-02-26T06:55:22;6.25;;;4.13;;
30307;SDS011;17114;52.314;8.910;2024-02-26T06:57:49;7.40;;;4.43;;
30307;SDS011;17114;52.314;8.910;2024-02-26T07:00:16;6.07;;;3.80;;
30307;SDS011;17114;52.314;8.910;2024-02-26T07:02:43;7.97;;;4.55;;
30307;SDS011;17114;52.314;8.910;2024-02-26T07:05:10;5.88;;;4.65;;
30307;SDS011;17114;52.314;8.910;2024-02-26T07:07:38;10.48;;;4.70;;
30307;SDS011;17114;52.314;8.910;2024-02-26T07:10:06;6.32;;;4.65;;
30307;SDS011;17114;52.314;8.910;2024-02-26T07:12:33;7.18;;;4.53;;
30307;SDS011;17114;52.314;8.910;2024-02-26T07:15:01;7.60;;;4.22;;
30307;SDS011;17114;52.314;8.910;2024-02-26T07:17:29;8.82;;;4.80;;
30307;SDS011;17114;52.314;8.910;2024-02-26T07:19:56;7.95;;;4.15;;
30307;SDS011;17114;52.314;8.910;2024-02-26T07:22:23;6.80;;;4.10;;
30307;SDS011;17114;52.314;8.910;2024-02-26T07:24:50;8.70;;;4.82;;
30307;SDS011;17114;52.314;8.910;2024-02-26T07:27:18;7.22;;;4.50;;
30307;SDS011;17114;52.314;8.910;2024-02-26T07:29:47;7.95;;;5.07;;
30307;SDS011;17114;52.314;8.910;2024-02-26T07:32:14;8.43;;;4.65;;
30307;SDS011;17114;52.314;8.910;2024-02-26T07:34:42;9.63;;;4.82;;
30307;SDS011;17114;52.314;8.910;2024-02-26T07:37:11;8.05;;;4.53;;
30307;SDS011;17114;52.314;8.910;2024-02-26T07:39:38;7.70;;;4.43;;
30307;SDS011;17114;52.314;8.910;2024-02-26T07:42:05;7.38;;;4.40;;
30307;SDS011;17114;52.314;8.910;2024-02-26T07:44:33;7.45;;;4.78;;
30307;SDS011;17114;52.314;8.910;2024-02-26T07:47:00;6.65;;;4.53;;
30307;SDS011;17114;52.314;8.910;2024-02-26T07:49:27;7.20;;;4.80;;
30307;SDS011;17114;52.314;8.910;2024-02-26T07:51:55;8.45;;;4.97;;
30307;SDS011;17114;52.314;8.910;2024-02-26T07:54:24;8.45;;;4.80;;
30307;SDS011;17114;52.314;8.910;2024-02-26T07:56:51;10.00;;;4.95;;
30307;SDS011;17114;52.314;8.910;2024-02-26T07:59:19;7.25;;;4.60;;
30307;SDS011;17114;52.314;8.910;2024-02-26T08:01:49;6.55;;;4.88;;
30307;SDS011;17114;52.314;8.910;2024-02-26T08:04:24;9.32;;;5.18;;
30307;SDS011;17114;52.314;8.910;2024-02-26T08:06:53;6.97;;;4.88;;
30307;SDS011;17114;52.314;8.910;2024-02-26T08:09:20;8.57;;;5.30;;
30307;SDS011;17114;52.314;8.910;2024-02-26T08:11:47;9.35;;;5.15;;
30307;SDS011;17114;52.314;8.910;2024-02-26T08:14:14;11.40;;;6.75;;
30307;SDS011;17114;52.314;8.910;2024-02-26T08:16:41;10.25;;;6.57;;
30307;SDS011;17114;52.314;8.910;2024-02-26T08:19:08;8.30;;;5.70;;
30307;SDS011;17114;52.314;8.910;2024-02-26T08:21:36;9.50;;;6.15;;
30307;SDS011;17114;52.314;8.910;2024-02-26T08:24:04;10.77;;;6.15;;
30307;SDS011;17114;52.314;8.910;2024-02-26T08:26:31;12.18;;;6.57;;
30307;SDS011;17114;52.314;8.910;2024-02-26T08:28:58;10.68;;;6.72;;
30307;SDS011;17114;52.314;8.910;2024-02-26T08:31:25;8.38;;;5.03;;
30307;SDS011;17114;52.314;8.910;2024-02-26T08:33:53;7.95;;;5.28;;
30307;SDS011;17114;52.314;8.910;2024-02-26T08:36:20;9.07;;;5.20;;
30307;SDS011;17114;52.314;8.910;2024-02-26T08:38:47;10.43;;;6.07;;
30307;SDS011;17114;52.314;8.910;2024-02-26T08:41:14;8.75;;;5.55;;
30307;SDS011;17114;52.314;8.910;2024-02-26T08:43:41;10.95;;;6.35;;
30307;SDS011;17114;52.314;8.910;2024-02-26T08:46:08;8.93;;;5.47;;
30307;SDS011;17114;52.314;8.910;2024-02-26T08:48:36;9.40;;;5.95;;
30307;SDS011;17114;52.314;8.910;2024-02-26T08:51:06;9.63;;;5.20;;
30307;SDS011;17114;52.314;8.910;2024-02-26T08:53:34;6.65;;;4.85;;
30307;SDS011;17114;52.314;8.910;2024-02-26T08:56:09;10.20;;;4.70;;
30307;SDS011;17114;52.314;8.910;2024-02-26T08:58:43;5.47;;;3.72;;
30307;SDS011;17114;52.314;8.910;2024-02-26T09:01:10;8.20;;;5.15;;
30307;SDS011;17114;52.314;8.910;2024-02-26T09:03:37;6.57;;;4.93;;
30307;SDS011;17114;52.314;8.910;2024-02-26T09:06:04;5.88;;;4.47;;
30307;SDS011;17114;52.314;8.910;2024-02-26T09:08:33;8.50;;;4.65;;
30307;SDS011;17114;52.314;8.910;2024-02-26T09:11:02;6.03;;;4.20;;
30307;SDS011;17114;52.314;8.910;2024-02-26T09:13:30;6.90;;;4.63;;
30307;SDS011;17114;52.314;8.910;2024-02-26T09:15:56;6.68;;;4.90;;
30307;SDS011;17114;52.314;8.910;2024-02-26T09:18:25;11.30;;;4.38;;
30307;SDS011;17114;52.314;8.910;2024-02-26T09:20:52;6.40;;;4.30;;
30307;SDS011;17114;52.314;8.910;2024-02-26T09:23:19;6.20;;;4.80;;
30307;SDS011;17114;52.314;8.910;2024-02-26T09:25:46;6.93;;;4.68;;
30307;SDS011;17114;52.314;8.910;2024-02-26T09:28:13;7.13;;;4.10;;
30307;SDS011;17114;52.314;8.910;2024-02-26T09:30:43;7.72;;;4.97;;
30307;SDS011;17114;52.314;8.910;2024-02-26T09:33:10;6.32;;;4.43;;
30307;SDS011;17114;52.314;8.910;2024-02-26T09:35:38;6.75;;;4.75;;
30307;SDS011;17114;52.314;8.910;2024-02-26T09:38:05;7.60;;;4.85;;
30307;SDS011;17114;52.314;8.910;2024-02-26T09:40:35;6.70;;;4.60;;
30307;SDS011;17114;52.314;8.910;2024-02-26T09:43:04;6.90;;;5.22;;
30307;SDS011;17114;52.314;8.910;2024-02-26T09:45:32;7.55;;;4.93;;
30307;SDS011;17114;52.314;8.910;2024-02-26T09:48:01;10.50;;;4.80;;
30307;SDS011;17114;52.314;8.910;2024-02-26T09:50:34;7.35;;;4.75;;
30307;SDS011;17114;52.314;8.910;2024-02-26T09:53:02;8.00;;;4.55;;
30307;SDS011;17114;52.314;8.910;2024-02-26T09:55:31;5.65;;;4.20;;
30307;SDS011;17114;52.314;8.910;2024-02-26T09:57:58;7.43;;;4.40;;
30307;SDS011;17114;52.314;8.910;2024-02-26T10:00:26;6.32;;;4.60;;
30307;SDS011;17114;52.314;8.910;2024-02-26T10:03:04;7.72;;;4.60;;
30307;SDS011;17114;52.314;8.910;2024-02-26T10:05:32;10.43;;;4.55;;
30307;SDS011;17114;52.314;8.910;2024-02-26T10:08:01;5.72;;;3.97;;
30307;SDS011;17114;52.314;8.910;2024-02-26T10:10:30;6.15;;;4.00;;
30307;SDS011;17114;52.314;8.910;2024-02-26T10:12:59;6.63;;;4.00;;
30307;SDS011;17114;52.314;8.910;2024-02-26T10:15:27;6.30;;;3.70;;
30307;SDS011;17114;52.314;8.910;2024-02-26T10:17:54;6.35;;;3.65;;
30307;SDS011;17114;52.314;8.910;2024-02-26T10:20:21;5.75;;;4.03;;
30307;SDS011;17114;52.314;8.910;2024-02-26T10:22:50;6.75;;;3.63;;
30307;SDS011;17114;52.314;8.910;2024-02-26T10:25:18;7.30;;;3.85;;
30307;SDS011;17114;52.314;8.910;2024-02-26T10:27:46;5.35;;;3.83;;
30307;SDS011;17114;52.314;8.910;2024-02-26T10:30:17;4.88;;;3.45;;
30307;SDS011;17114;52.314;8.910;2024-02-26T10:32:49;5.75;;;4.25;;
30307;SDS011;17114;52.314;8.910;2024-02-26T10:35:17;6.60;;;3.60;;
30307;SDS011;17114;52.314;8.910;2024-02-26T10:37:47;4.95;;;3.63;;
30307;SDS011;17114;52.314;8.910;2024-02-26T10:40:15;6.15;;;3.70;;
30307;SDS011;17114;52.314;8.910;2024-02-26T10:42:43;4.97;;;3.25;;
30307;SDS011;17114;52.314;8.910;2024-02-26T10:45:12;6.50;;;3.60;;
30307;SDS011;17114;52.314;8.910;2024-02-26T10:47:40;6.68;;;3.60;;
30307;SDS011;17114;52.314;8.910;2024-02-26T10:50:08;4.75;;;3.30;;
30307;SDS011;17114;52.314;8.910;2024-02-26T10:52:36;6.28;;;3.78;;
30307;SDS011;17114;52.314;8.910;2024-02-26T10:55:04;8.63;;;3.13;;
30307;SDS011;17114;52.314;8.910;2024-02-26T10:57:42;4.95;;;2.70;;
30307;SDS011;17114;52.314;8.910;2024-02-26T11:00:14;4.65;;;3.15;;
30307;SDS011;17114;52.314;8.910;2024-02-26T11:02:42;3.95;;;2.85;;
30307;SDS011;17114;52.314;8.910;2024-02-26T11:05:13;7.05;;;3.22;;
30307;SDS011;17114;52.314;8.910;2024-02-26T11:07:41;5.15;;;2.97;;
30307;SDS011;17114;52.314;8.910;2024-02-26T11:10:09;4.93;;;2.83;;
30307;SDS011;17114;52.314;8.910;2024-02-26T11:12:38;5.65;;;3.38;;
30307;SDS011;17114;52.314;8.910;2024-02-26T11:15:06;6.20;;;3.38;;
30307;SDS011;17114;52.314;8.910;2024-02-26T11:17:34;3.67;;;2.88;;
30307;SDS011;17114;52.314;8.910;2024-02-26T11:20:03;4.93;;;2.80;;
30307;SDS011;17114;52.314;8.910;2024-02-26T11:22:32;5.00;;;2.65;;
30307;SDS011;17114;52.314;8.910;2024-02-26T11:24:59;4.15;;;2.58;;
30307;SDS011;17114;52.314;8.910;2024-02-26T11:27:29;3.15;;;2.40;;
30307;SDS011;17114;52.314;8.910;2024-02-26T11:30:00;3.58;;;2.60;;
30307;SDS011;17114;52.314;8.910;2024-02-26T11:32:31;2.85;;;2.33;;
30307;SDS011;17114;52.314;8.910;2024-02-26T11:34:58;4.05;;;2.80;;
30307;SDS011;17114;52.314;8.910;2024-02-26T11:37:26;4.63;;;2.83;;
30307;SDS011;17114;52.314;8.910;2024-02-26T11:39:53;4.35;;;2.70;;
30307;SDS011;17114;52.314;8.910;2024-02-26T11:42:24;4.38;;;2.72;;
30307;SDS011;17114;52.314;8.910;2024-02-26T11:44:52;6.43;;;3.10;;
30307;SDS011;17114;52.314;8.910;2024-02-26T11:47:20;4.97;;;2.90;;
30307;SDS011;17114;52.314;8.910;2024-02-26T11:49:49;4.68;;;2.50;;
30307;SDS011;17114;52.314;8.910;2024-02-26T11:52:16;8.93;;;2.40;;
30307;SDS011;17114;52.314;8.910;2024-02-26T11:57:25;3.13;;;2.33;;
30307;SDS011;17114;52.314;8.910;2024-02-26T12:00:12;4.20;;;2.35;;
30307;SDS011;17114;52.314;8.910;2024-02-26T12:02:44;3.70;;;2.28;;
30307;SDS011;17114;52.314;8.910;2024-02-26T12:05:24;4.53;;;2.63;;
30307;SDS011;17114;52.314;8.910;2024-02-26T12:07:55;3.88;;;2.58;;
30307;SDS011;17114;52.314;8.910;2024-02-26T12:10:27;3.30;;;2.40;;
30307;SDS011;17114;52.314;8.910;2024-02-26T12:13:03;4.23;;;2.00;;
30307;SDS011;17114;52.314;8.910;2024-02-26T12:15:42;5.15;;;2.80;;
30307;SDS011;17114;52.314;8.910;2024-02-26T12:18:10;3.67;;;2.45;;
30307;SDS011;17114;52.314;8.910;2024-02-26T12:20:43;3.38;;;2.20;;
30307;SDS011;17114;52.314;8.910;2024-02-26T12:23:14;6.85;;;2.75;;
30307;SDS011;17114;52.314;8.910;2024-02-26T12:25:43;5.75;;;2.95;;
30307;SDS011;17114;52.314;8.910;2024-02-26T12:28:15;3.67;;;2.35;;
30307;SDS011;17114;52.314;8.910;2024-02-26T12:30:42;3.38;;;2.30;;
30307;SDS011;17114;52.314;8.910;2024-02-26T12:33:21;3.58;;;2.65;;
30307;SDS011;17114;52.314;8.910;2024-02-26T12:35:48;5.18;;;2.90;;
30307;SDS011;17114;52.314;8.910;2024-02-26T12:38:16;5.38;;;3.10;;
30307;SDS011;17114;52.314;8.910;2024-02-26T12:40:44;3.05;;;2.33;;
30307;SDS011;17114;52.314;8.910;2024-02-26T12:43:11;4.18;;;2.70;;
30307;SDS011;17114;52.314;8.910;2024-02-26T12:45:42;4.72;;;2.60;;
30307;SDS011;17114;52.314;8.910;2024-02-26T12:48:17;5.25;;;2.78;;
30307;SDS011;17114;52.314;8.910;2024-02-26T12:50:44;5.25;;;3.10;;
30307;SDS011;17114;52.314;8.910;2024-02-26T12:53:14;5.03;;;2.90;;
30307;SDS011;17114;52.314;8.910;2024-02-26T12:55:41;3.92;;;2.88;;
30307;SDS011;17114;52.314;8.910;2024-02-26T12:58:09;4.50;;;2.50;;
30307;SDS011;17114;52.314;8.910;2024-02-26T13:00:36;6.20;;;2.53;;
30307;SDS011;17114;52.314;8.910;2024-02-26T13:03:04;3.88;;;2.47;;
30307;SDS011;17114;52.314;8.910;2024-02-26T13:05:31;4.30;;;2.42;;
30307;SDS011;17114;52.314;8.910;2024-02-26T13:07:59;3.67;;;2.50;;
30307;SDS011;17114;52.314;8.910;2024-02-26T13:10:26;6.35;;;2.67;;
30307;SDS011;17114;52.314;8.910;2024-02-26T13:12:53;4.40;;;2.70;;
30307;SDS011;17114;52.314;8.910;2024-02-26T13:15:21;5.35;;;2.58;;
30307;SDS011;17114;52.314;8.910;2024-02-26T13:17:49;3.30;;;2.28;;
30307;SDS011;17114;52.314;8.910;2024-02-26T13:20:29;4.70;;;2.50;;
30307;SDS011;17114;52.314;8.910;2024-02-26T13:23:04;2.95;;;2.22;;
30307;SDS011;17114;52.314;8.910;2024-02-26T13:25:33;3.08;;;2.38;;
30307;SDS011;17114;52.314;8.910;2024-02-26T13:28:06;4.22;;;2.22;;
30307;SDS011;17114;52.314;8.910;2024-02-26T13:30:36;5.07;;;3.15;;
30307;SDS011;17114;52.314;8.910;2024-02-26T13:35:37;3.23;;;2.27;;
30307;SDS011;17114;52.314;8.910;2024-02-26T13:38:05;5.85;;;2.20;;
30307;SDS011;17114;52.314;8.910;2024-02-26T13:40:32;3.78;;;2.67;;
30307;SDS011;17114;52.314;8.910;2024-02-26T13:43:00;5.75;;;3.30;;
30307;SDS011;17114;52.314;8.910;2024-02-26T13:45:27;3.83;;;2.58;;
30307;SDS011;17114;52.314;8.910;2024-02-26T13:48:02;4.18;;;2.35;;
30307;SDS011;17114;52.314;8.910;2024-02-26T13:50:31;3.08;;;2.40;;
30307;SDS011;17114;52.314;8.910;2024-02-26T13:52:58;5.03;;;2.60;;
30307;SDS011;17114;52.314;8.910;2024-02-26T13:55:25;3.15;;;2.20;;
30307;SDS011;17114;52.314;8.910;2024-02-26T13:57:54;4.70;;;2.40;;
30307;SDS011;17114;52.314;8.910;2024-02-26T14:00:23;4.65;;;2.13;;
30307;SDS011;17114;52.314;8.910;2024-02-26T14:02:53;3.25;;;2.00;;
30307;SDS011;17114;52.314;8.910;2024-02-26T14:05:20;4.15;;;2.47;;
30307;SDS011;17114;52.314;8.910;2024-02-26T14:07:47;3.95;;;2.47;;
30307;SDS011;17114;52.314;8.910;2024-02-26T14:10:18;4.20;;;2.60;;
30307;SDS011;17114;52.314;8.910;2024-02-26T14:12:45;11.50;;;3.95;;
30307;SDS011;17114;52.314;8.910;2024-02-26T14:15:12;6.15;;;3.33;;
30307;SDS011;17114;52.314;8.910;2024-02-26T14:17:40;17.48;;;6.05;;
30307;SDS011;17114;52.314;8.910;2024-02-26T14:20:07;6.25;;;2.85;;
30307;SDS011;17114;52.314;8.910;2024-02-26T14:22:35;3.50;;;2.40;;
30307;SDS011;17114;52.314;8.910;2024-02-26T14:25:02;4.13;;;2.20;;
30307;SDS011;17114;52.314;8.910;2024-02-26T14:27:30;4.28;;;2.72;;
30307;SDS011;17114;52.314;8.910;2024-02-26T14:29:57;3.03;;;2.10;;
30307;SDS011;17114;52.314;8.910;2024-02-26T14:32:24;4.25;;;2.28;;
30307;SDS011;17114;52.314;8.910;2024-02-26T14:34:51;2.80;;;1.85;;
30307;SDS011;17114;52.314;8.910;2024-02-26T14:37:19;2.58;;;1.77;;
30307;SDS011;17114;52.314;8.910;2024-02-26T14:39:46;2.97;;;1.80;;
30307;SDS011;17114;52.314;8.910;2024-02-26T14:42:14;4.03;;;1.77;;
30307;SDS011;17114;52.314;8.910;2024-02-26T14:44:44;4.05;;;1.50;;
30307;SDS011;17114;52.314;8.910;2024-02-26T14:47:12;2.70;;;1.73;;
30307;SDS011;17114;52.314;8.910;2024-02-26T14:49:40;2.63;;;1.60;;
30307;SDS011;17114;52.314;8.910;2024-02-26T14:52:08;3.08;;;1.70;;
30307;SDS011;17114;52.314;8.910;2024-02-26T14:54:35;2.70;;;1.70;;
30307;SDS011;17114;52.314;8.910;2024-02-26T14:57:06;4.55;;;2.67;;